Time;durP1;ratioP1;P1;durP2;ratioP2;P2;SDS_P1;SDS_P2;PMS_P1;PMS_P2;Temp;Humidity;BMP_temperature;BMP_pressure;BME280_temperature;BME280_humidity;BME280_pressure;Samples;Min_cycle;Max_cycle;Signal;HPM_P1;HPM_P2
2021/08/02 00:00:08;;;;;;;9.23;8.43;;;19.30;99.90;;;;;;5092068;28;20436;-72
2021/08/02 00:02:47;;;;;;;9.73;9.03;;;19.30;99.90;;;;;;5091697;28;20962;-72
2021/08/02 00:05:13;;;;;;;8.40;7.90;;;19.30;99.90;;;;;;5092729;28;20727;-72
2021/08/02 00:07:41;;;;;;;8.13;7.63;;;19.30;99.90;;;;;;5091717;28;20808;-72
2021/08/02 00:10:15;;;;;;;7.33;6.83;;;19.20;99.90;;;;;;5092053;28;20463;-72
2021/08/02 00:12:49;;;;;;;8.63;7.90;;;19.20;99.90;;;;;;5093035;28;20464;-73
2021/08/02 00:15:17;;;;;;;8.40;7.80;;;19.30;99.90;;;;;;5092206;28;20536;-72
2021/08/02 00:17:45;;;;;;;8.70;8.10;;;19.30;99.90;;;;;;5092943;28;20410;-72
2021/08/02 00:20:16;;;;;;;7.63;7.13;;;19.30;99.90;;;;;;5092120;28;20513;-72
2021/08/02 00:22:42;;;;;;;7.30;6.80;;;19.30;99.90;;;;;;5091588;28;20417;-72
2021/08/02 00:25:10;;;;;;;7.00;6.50;;;19.20;99.90;;;;;;5092281;28;20774;-73
2021/08/02 00:27:36;;;;;;;8.10;7.60;;;19.30;99.90;;;;;;5091586;28;20164;-72
2021/08/02 00:30:04;;;;;;;10.03;7.60;;;19.30;99.90;;;;;;5092552;28;20414;-73
2021/08/02 00:32:30;;;;;;;8.17;7.57;;;19.20;99.90;;;;;;5091291;28;20455;-73
2021/08/02 00:34:56;;;;;;;8.10;7.53;;;19.30;99.90;;;;;;5094536;28;20410;-73
2021/08/02 00:37:37;;;;;;;7.63;7.10;;;19.30;99.90;;;;;;5095856;28;20254;-74
2021/08/02 00:40:41;;;;;;;7.37;6.93;;;19.30;99.90;;;;;;5096060;28;20168;-73
2021/08/02 00:43:21;;;;;;;8.30;7.63;;;19.30;99.90;;;;;;5096453;28;20410;-72
2021/08/02 00:45:49;;;;;;;8.43;7.70;;;19.30;99.90;;;;;;5096152;28;20461;-72
2021/08/02 00:48:18;;;;;;;8.53;7.93;;;19.30;99.90;;;;;;5095666;28;20509;-73
2021/08/02 00:50:49;;;;;;;7.30;6.60;;;19.20;99.90;;;;;;5095410;28;20489;-72
2021/08/02 00:53:24;;;;;;;8.27;7.67;;;19.30;99.90;;;;;;5096121;28;20446;-73
2021/08/02 00:55:57;;;;;;;8.13;7.53;;;19.20;99.90;;;;;;5096402;27;20426;-72
2021/08/02 00:58:25;;;;;;;8.70;8.10;;;19.20;99.90;;;;;;5096317;28;20477;-73
2021/08/02 01:00:52;;;;;;;9.00;8.20;;;19.30;99.90;;;;;;5096024;28;20410;-72
2021/08/02 01:03:18;;;;;;;8.50;7.90;;;19.20;99.90;;;;;;5095899;28;20406;-79
2021/08/02 01:05:48;;;;;;;8.63;7.80;;;19.30;99.90;;;;;;5095607;28;20897;-72
2021/08/02 01:08:22;;;;;;;8.13;7.53;;;19.20;99.90;;;;;;5096208;28;20467;-72
2021/08/02 01:10:55;;;;;;;8.60;7.90;;;19.20;99.90;;;;;;5095757;28;20925;-72
2021/08/02 01:13:24;;;;;;;9.33;8.70;;;19.30;99.90;;;;;;5095097;28;20973;-74
2021/08/02 01:15:52;;;;;;;8.60;7.90;;;19.30;99.90;;;;;;5095963;28;20429;-72
2021/08/02 01:18:20;;;;;;;8.93;8.13;;;19.30;99.90;;;;;;5095591;28;20414;-76
2021/08/02 01:20:49;;;;;;;8.77;8.07;;;19.30;99.90;;;;;;5095456;28;20415;-72
2021/08/02 01:23:16;;;;;;;9.57;8.80;;;19.20;99.90;;;;;;5095640;28;20435;-72
2021/08/02 01:25:42;;;;;;;9.00;8.20;;;19.20;99.90;;;;;;5096879;28;21011;-73
2021/08/02 01:28:14;;;;;;;8.90;8.10;;;19.20;99.90;;;;;;5105229;28;20492;-75
2021/08/02 01:30:53;;;;;;;8.37;7.77;;;19.20;99.90;;;;;;5100991;28;20261;-72
2021/08/02 01:33:32;;;;;;;10.30;8.47;;;19.20;99.90;;;;;;5102449;28;20923;-79
2021/08/02 01:36:01;;;;;;;10.17;9.27;;;19.20;99.90;;;;;;5101445;28;20835;-73
2021/08/02 01:38:28;;;;;;;10.20;9.20;;;19.20;99.90;;;;;;5102892;28;20993;-72
2021/08/02 01:40:54;;;;;;;9.03;8.23;;;19.20;99.90;;;;;;5104618;28;20468;-73
2021/08/02 01:43:20;;;;;;;9.23;8.43;;;19.20;99.90;;;;;;5104690;28;20401;-79
2021/08/02 01:46:27;;;;;;;15.80;9.70;;;19.20;99.90;;;;;;5103359;28;20453;-72
2021/08/02 01:49:23;;;;;;;9.53;8.73;;;19.20;99.90;;;;;;5062935;28;20415;-72
2021/08/02 01:51:51;;;;;;;9.80;9.00;;;19.20;99.90;;;;;;5103355;28;20420;-75
2021/08/02 01:54:32;;;;;;;10.00;9.03;;;19.20;99.90;;;;;;5099675;28;20450;-72
2021/08/02 01:57:18;;;;;;;11.40;9.93;;;19.10;99.90;;;;;;5103342;28;20500;-72
2021/08/02 02:00:11;;;;;;;10.07;9.27;;;19.10;99.90;;;;;;5101404;28;20410;-72
2021/08/02 02:02:39;;;;;;;10.20;9.40;;;19.10;99.90;;;;;;5097183;28;20505;-72
2021/08/02 02:05:18;;;;;;;11.20;10.10;;;19.10;99.90;;;;;;5103691;28;20455;-73
2021/08/02 02:08:10;;;;;;;12.53;10.87;;;19.10;99.90;;;;;;5101203;28;20463;-72
2021/08/02 02:10:38;;;;;;;10.50;9.63;;;19.10;99.90;;;;;;5103670;28;20416;-72
2021/08/02 02:13:16;;;;;;;11.70;10.70;;;19.10;99.90;;;;;;5103319;28;20477;-73
2021/08/02 02:15:45;;;;;;;12.07;10.97;;;19.10;99.90;;;;;;5100234;28;20490;-74
2021/08/02 02:18:14;;;;;;;12.20;11.00;;;19.10;99.90;;;;;;5102655;28;20446;-72
2021/08/02 02:20:43;;;;;;;12.83;11.60;;;19.10;99.90;;;;;;5098650;28;20605;-72
2021/08/02 02:23:10;;;;;;;13.17;11.87;;;19.10;99.90;;;;;;5094384;28;20511;-72
2021/08/02 02:25:37;;;;;;;12.57;11.53;;;19.10;99.90;;;;;;5093814;28;20894;-73
2021/08/02 02:28:04;;;;;;;13.93;12.67;;;19.10;99.90;;;;;;5093883;28;20454;-72
2021/08/02 02:30:30;;;;;;;14.07;12.63;;;19.10;99.90;;;;;;5093566;28;20410;-73
2021/08/02 02:32:57;;;;;;;13.93;12.33;;;19.10;99.90;;;;;;5093824;28;20775;-72
2021/08/02 02:35:25;;;;;;;13.97;12.50;;;19.00;99.90;;;;;;5093802;28;20459;-79
2021/08/02 02:37:52;;;;;;;13.60;12.30;;;19.00;99.90;;;;;;5094308;28;20406;-72
2021/08/02 02:40:19;;;;;;;13.37;12.17;;;19.00;99.90;;;;;;5094105;28;20754;-72
2021/08/02 02:42:46;;;;;;;14.60;12.00;;;19.00;99.90;;;;;;5093064;28;20410;-72
2021/08/02 02:45:12;;;;;;;14.33;13.03;;;19.00;99.90;;;;;;5093858;28;20802;-72
2021/08/02 02:47:39;;;;;;;16.87;12.83;;;19.00;99.90;;;;;;5093226;28;20501;-72
2021/08/02 02:50:06;;;;;;;14.23;12.83;;;19.00;99.90;;;;;;5094061;28;20434;-72
2021/08/02 02:52:33;;;;;;;16.00;13.30;;;19.00;99.90;;;;;;5093097;28;20976;-73
2021/08/02 02:55:00;;;;;;;13.97;12.57;;;19.00;99.90;;;;;;5094046;28;20410;-72
2021/08/02 02:57:26;;;;;;;13.37;12.13;;;18.90;99.90;;;;;;5092264;28;20459;-75
2021/08/02 02:59:52;;;;;;;13.87;12.47;;;18.90;99.90;;;;;;5093554;28;20890;-73
2021/08/02 03:02:20;;;;;;;13.97;12.60;;;18.90;99.90;;;;;;5093540;28;20173;-72
2021/08/02 03:04:50;;;;;;;12.47;11.20;;;18.90;99.90;;;;;;5092922;28;21054;-72
2021/08/02 03:07:17;;;;;;;13.67;12.47;;;18.90;99.90;;;;;;5093941;28;20866;-72
2021/08/02 03:09:46;;;;;;;13.30;12.00;;;18.90;99.90;;;;;;5093021;28;20410;-72
2021/08/02 03:12:13;;;;;;;14.63;13.17;;;18.90;99.90;;;;;;5093510;28;20422;-70
2021/08/02 03:14:39;;;;;;;14.77;13.27;;;18.90;99.90;;;;;;5092635;28;20409;-72
2021/08/02 03:17:08;;;;;;;15.00;13.40;;;18.90;99.90;;;;;;5093608;28;20474;-72
2021/08/02 03:19:36;;;;;;;15.03;13.43;;;18.90;99.90;;;;;;5093065;28;20403;-72
2021/08/02 03:22:11;;;;;;;13.90;12.57;;;18.90;99.90;;;;;;5093153;28;20399;-72
2021/08/02 03:24:46;;;;;;;13.00;11.83;;;18.90;99.90;;;;;;5092530;28;20387;-72
2021/08/02 03:27:28;;;;;;;13.67;12.23;;;18.90;99.90;;;;;;5093376;28;20394;-72
2021/08/02 03:29:58;;;;;;;11.47;10.47;;;18.80;99.90;;;;;;5093245;28;20397;-72
2021/08/02 03:32:25;;;;;;;11.37;10.33;;;18.80;99.90;;;;;;5093032;28;20402;-75
2021/08/02 03:34:55;;;;;;;11.10;10.10;;;18.80;99.90;;;;;;5092358;28;20559;-72
2021/08/02 03:37:23;;;;;;;10.80;9.80;;;18.80;99.90;;;;;;5091988;28;20409;-73
2021/08/02 03:39:52;;;;;;;10.60;9.50;;;18.80;99.90;;;;;;5092776;28;20411;-72
2021/08/02 03:42:18;;;;;;;9.77;8.90;;;18.80;99.90;;;;;;5093373;28;20882;-72
2021/08/02 03:44:48;;;;;;;10.57;8.60;;;18.70;99.90;;;;;;5092420;28;20453;-72
2021/08/02 03:47:14;;;;;;;8.73;7.93;;;18.70;99.90;;;;;;5093261;28;20411;-72
2021/08/02 03:49:40;;;;;;;8.40;7.70;;;18.60;99.90;;;;;;5092642;28;20456;-72
2021/08/02 03:52:06;;;;;;;11.50;8.43;;;18.70;99.90;;;;;;5092981;28;20181;-72
2021/08/02 03:54:32;;;;;;;8.40;7.80;;;18.70;99.90;;;;;;5091267;28;20473;-72
2021/08/02 03:57:00;;;;;;;8.83;8.13;;;18.70;99.90;;;;;;5093143;28;20399;-72
2021/08/02 03:59:26;;;;;;;9.70;8.90;;;18.60;99.90;;;;;;5092850;28;20239;-79
2021/08/02 04:01:52;;;;;;;8.50;7.80;;;18.60;99.90;;;;;;5093052;28;20416;-72
2021/08/02 04:04:18;;;;;;;9.97;8.53;;;18.70;99.90;;;;;;5092995;28;20885;-72
2021/08/02 04:06:44;;;;;;;9.30;8.50;;;18.60;99.90;;;;;;5092688;28;20436;-72
2021/08/02 04:09:12;;;;;;;9.70;8.77;;;18.60;99.90;;;;;;5092591;28;20187;-73
2021/08/02 04:11:39;;;;;;;8.20;7.37;;;18.60;99.90;;;;;;5092359;28;20172;-73
2021/08/02 04:14:06;;;;;;;9.67;8.80;;;18.60;99.90;;;;;;5092556;28;20478;-72
2021/08/02 04:16:32;;;;;;;11.60;8.37;;;18.60;99.90;;;;;;5092217;28;20800;-72
2021/08/02 04:18:58;;;;;;;10.00;8.10;;;18.60;99.90;;;;;;5092817;28;20798;-72
2021/08/02 04:21:23;;;;;;;8.60;7.90;;;18.60;99.90;;;;;;5091693;28;20406;-72
2021/08/02 04:23:49;;;;;;;10.40;9.40;;;18.60;99.90;;;;;;5092126;28;20172;-73
2021/08/02 04:26:15;;;;;;;9.30;8.50;;;18.60;99.90;;;;;;5092832;28;20179;-72
2021/08/02 04:28:42;;;;;;;8.57;7.67;;;18.60;99.90;;;;;;5091843;28;20172;-72
2021/08/02 04:31:08;;;;;;;9.40;8.20;;;18.60;99.90;;;;;;5092907;28;20179;-72
2021/08/02 04:33:34;;;;;;;8.50;7.80;;;18.60;99.90;;;;;;5091634;28;20850;-73
2021/08/02 04:36:00;;;;;;;8.90;8.30;;;18.60;99.90;;;;;;5092615;28;20406;-72
2021/08/02 04:38:26;;;;;;;7.87;7.17;;;18.60;99.90;;;;;;5092612;28;20172;-72
2021/08/02 04:40:51;;;;;;;7.30;6.37;;;18.60;99.90;;;;;;5092000;28;20234;-72
2021/08/02 04:43:17;;;;;;;9.13;8.23;;;18.60;99.90;;;;;;5092583;28;20935;-72
2021/08/02 04:45:46;;;;;;;8.40;7.60;;;18.60;99.90;;;;;;5091682;28;20251;-72
2021/08/02 04:48:11;;;;;;;8.17;7.47;;;18.60;99.90;;;;;;5091334;28;20194;-72
2021/08/02 04:50:38;;;;;;;9.13;8.23;;;18.60;99.90;;;;;;5091936;28;20402;-72
2021/08/02 04:53:04;;;;;;;8.00;7.20;;;18.60;99.90;;;;;;5092456;28;20196;-72
2021/08/02 04:55:30;;;;;;;7.93;7.13;;;18.60;99.90;;;;;;5091806;28;20413;-75
2021/08/02 04:57:56;;;;;;;9.80;7.70;;;18.60;99.90;;;;;;5092417;28;20494;-72
2021/08/02 05:00:21;;;;;;;7.50;6.90;;;18.60;99.90;;;;;;5092104;28;20547;-72
2021/08/02 05:02:47;;;;;;;7.80;7.00;;;18.60;99.90;;;;;;5091285;28;20656;-72
2021/08/02 05:05:13;;;;;;;8.30;7.50;;;18.60;99.90;;;;;;5092368;28;20730;-73
2021/08/02 05:07:39;;;;;;;7.80;7.13;;;18.70;99.90;;;;;;5090597;28;20178;-72
2021/08/02 05:10:05;;;;;;;7.80;7.10;;;18.70;99.90;;;;;;5092435;28;20175;-72
2021/08/02 05:12:31;;;;;;;12.53;7.13;;;18.70;99.90;;;;;;5090587;28;20454;-74
2021/08/02 05:15:06;;;;;;;7.70;7.00;;;18.70;99.90;;;;;;5092415;28;20409;-72
2021/08/02 05:17:31;;;;;;;9.37;8.27;;;18.70;99.90;;;;;;5091769;28;20164;-73
2021/08/02 05:19:57;;;;;;;10.00;7.20;;;18.70;99.90;;;;;;5092211;28;21348;-73
2021/08/02 05:22:23;;;;;;;7.83;7.13;;;18.70;99.90;;;;;;5094925;28;20208;-72
2021/08/02 05:24:49;;;;;;;7.80;7.07;;;18.80;99.90;;;;;;5095194;28;20422;-73
2021/08/02 05:27:15;;;;;;;8.67;7.13;;;18.70;99.90;;;;;;5095850;28;20180;-72
2021/08/02 05:29:40;;;;;;;8.60;7.50;;;18.80;99.90;;;;;;5098569;28;20273;-73
2021/08/02 05:32:06;;;;;;;7.03;6.43;;;18.70;99.90;;;;;;5096610;28;20180;-73
2021/08/02 05:34:32;;;;;;;7.83;7.23;;;18.70;99.90;;;;;;5094387;28;20239;-73
2021/08/02 05:36:58;;;;;;;7.10;6.60;;;18.70;99.90;;;;;;5095082;28;20442;-73
2021/08/02 05:39:24;;;;;;;9.83;7.37;;;18.80;99.90;;;;;;5094920;28;20497;-73
2021/08/02 05:41:49;;;;;;;8.20;7.43;;;18.80;99.90;;;;;;5094332;28;20608;-74
2021/08/02 05:44:15;;;;;;;8.40;6.80;;;18.80;99.90;;;;;;5097978;28;20227;-73
2021/08/02 05:46:41;;;;;;;7.50;6.90;;;18.80;99.90;;;;;;5110823;28;20176;-75
2021/08/02 05:49:06;;;;;;;7.87;7.17;;;18.80;99.90;;;;;;5095466;28;20184;-72
2021/08/02 05:51:32;;;;;;;6.90;6.17;;;18.80;99.90;;;;;;5094949;28;20176;-74
2021/08/02 05:53:58;;;;;;;8.37;7.53;;;18.90;99.90;;;;;;5098745;28;20644;-73
2021/08/02 05:56:24;;;;;;;6.37;5.77;;;19.00;99.90;;;;;;5096698;28;20195;-73
2021/08/02 05:58:49;;;;;;;7.03;6.33;;;19.20;99.90;;;;;;5094739;28;20164;-73
2021/08/02 06:01:15;;;;;;;11.03;9.30;;;19.40;99.90;;;;;;5108232;28;20267;-73
2021/08/02 06:03:41;;;;;;;7.40;6.13;;;19.50;99.90;;;;;;5115004;28;20224;-73
2021/08/02 06:06:07;;;;;;;7.60;6.93;;;19.70;99.90;;;;;;5115540;28;20764;-73
2021/08/02 06:08:37;;;;;;;6.53;5.90;;;19.80;99.90;;;;;;5115055;28;20680;-82
2021/08/02 06:11:03;;;;;;;8.10;7.50;;;20.00;99.90;;;;;;5115567;28;20175;-73
2021/08/02 06:13:29;;;;;;;8.60;7.80;;;20.10;99.90;;;;;;5100430;28;20462;-73
2021/08/02 06:15:55;;;;;;;7.83;7.17;;;20.10;99.90;;;;;;5094452;28;20245;-73
2021/08/02 06:18:21;;;;;;;11.00;5.00;;;20.20;99.90;;;;;;5094959;28;20395;-73
2021/08/02 06:20:47;;;;;;;8.67;8.03;;;20.30;99.90;;;;;;5094375;28;20463;-73
2021/08/02 06:23:12;;;;;;;8.10;7.60;;;20.30;99.80;;;;;;5094859;28;20226;-73
2021/08/02 06:25:38;;;;;;;6.50;6.00;;;20.40;99.60;;;;;;5095363;28;20586;-72
2021/08/02 06:28:04;;;;;;;7.77;4.90;;;20.40;99.70;;;;;;5111483;28;20207;-73
2021/08/02 06:30:30;;;;;;;7.00;6.40;;;20.50;99.90;;;;;;5103425;28;20207;-73
2021/08/02 06:32:55;;;;;;;7.93;7.43;;;20.50;99.50;;;;;;5102562;28;20258;-73
2021/08/02 06:35:21;;;;;;;6.27;5.70;;;20.60;99.60;;;;;;5099202;28;20175;-73
2021/08/02 06:37:47;;;;;;;7.97;7.00;;;20.60;99.50;;;;;;5101410;28;20185;-73
2021/08/02 06:40:14;;;;;;;6.97;6.20;;;20.60;99.30;;;;;;5093873;28;20230;-73
2021/08/02 06:42:40;;;;;;;7.57;6.70;;;20.70;99.00;;;;;;5103113;28;20183;-73
2021/08/02 06:45:07;;;;;;;7.80;7.10;;;20.70;98.70;;;;;;5093774;28;20519;-73
2021/08/02 06:47:33;;;;;;;8.37;7.77;;;20.70;98.40;;;;;;5097805;28;20942;-76
2021/08/02 06:49:59;;;;;;;6.27;5.77;;;20.70;99.00;;;;;;5098540;28;20410;-73
2021/08/02 06:52:24;;;;;;;8.27;7.30;;;20.70;98.80;;;;;;5093729;28;20207;-73
2021/08/02 06:54:50;;;;;;;10.40;6.20;;;20.80;98.10;;;;;;5093019;28;20202;-73
2021/08/02 06:57:16;;;;;;;5.80;5.37;;;20.80;98.00;;;;;;5093701;28;20236;-73
2021/08/02 06:59:43;;;;;;;7.10;6.40;;;20.80;97.90;;;;;;5092946;28;20196;-73
2021/08/02 07:02:08;;;;;;;6.90;5.53;;;20.80;98.80;;;;;;5093720;28;20830;-73
2021/08/02 07:04:34;;;;;;;5.77;5.27;;;20.90;98.60;;;;;;5093325;28;20187;-72
2021/08/02 07:07:00;;;;;;;6.80;6.30;;;20.90;98.70;;;;;;5092663;28;20180;-73
2021/08/02 07:09:26;;;;;;;7.43;6.77;;;21.00;99.10;;;;;;5095344;28;20179;-73
2021/08/02 07:11:51;;;;;;;6.00;4.77;;;21.00;98.80;;;;;;5104561;28;20635;-73
2021/08/02 07:14:17;;;;;;;6.23;5.83;;;21.00;98.40;;;;;;5107598;28;20254;-73
2021/08/02 07:16:43;;;;;;;7.17;6.67;;;21.10;98.70;;;;;;5113666;28;20228;-74
2021/08/02 07:19:08;;;;;;;5.80;5.17;;;21.10;98.80;;;;;;5111331;28;20180;-73
2021/08/02 07:21:34;;;;;;;7.60;6.90;;;21.10;98.10;;;;;;5093823;28;20740;-72
2021/08/02 07:24:00;;;;;;;5.53;5.13;;;21.20;99.10;;;;;;5091956;28;20252;-72
2021/08/02 07:26:26;;;;;;;4.57;4.27;;;21.30;99.00;;;;;;5093462;28;20183;-73
2021/08/02 07:28:57;;;;;;;5.67;5.37;;;21.40;98.50;;;;;;5092887;28;20183;-72
2021/08/02 07:31:25;;;;;;;4.83;4.43;;;21.50;97.80;;;;;;5097327;28;20824;-73
2021/08/02 07:33:50;;;;;;;5.20;4.53;;;21.60;97.20;;;;;;5091899;28;20473;-72
2021/08/02 07:36:16;;;;;;;6.03;5.43;;;21.70;97.20;;;;;;5097708;28;20418;-72
2021/08/02 07:38:44;;;;;;;6.47;6.07;;;21.70;97.00;;;;;;5110747;28;20184;-73
2021/08/02 07:41:13;;;;;;;4.70;4.40;;;21.80;97.20;;;;;;5111903;28;20210;-73
2021/08/02 07:43:39;;;;;;;5.77;5.37;;;21.90;96.40;;;;;;5112911;28;20815;-80
2021/08/02 07:46:05;;;;;;;6.60;4.80;;;21.90;96.60;;;;;;5104817;28;20482;-72
2021/08/02 07:48:31;;;;;;;5.10;4.70;;;22.00;96.20;;;;;;5093289;28;20176;-72
2021/08/02 07:50:57;;;;;;;4.80;4.50;;;22.10;96.20;;;;;;5092737;28;20407;-72
2021/08/02 07:53:22;;;;;;;4.90;4.60;;;22.10;96.30;;;;;;5092832;28;20686;-72
2021/08/02 07:55:49;;;;;;;6.00;5.50;;;22.10;96.10;;;;;;5092382;28;20516;-73
2021/08/02 07:58:14;;;;;;;5.43;4.50;;;22.20;96.10;;;;;;5092723;28;20275;-73
2021/08/02 08:00:40;;;;;;;4.90;4.40;;;22.20;95.70;;;;;;5092309;28;20843;-73
2021/08/02 08:03:06;;;;;;;5.20;4.77;;;22.20;96.00;;;;;;5092944;28;20176;-72
2021/08/02 08:05:32;;;;;;;5.57;5.27;;;22.20;95.60;;;;;;5092193;28;20514;-73
2021/08/02 08:07:58;;;;;;;4.93;4.50;;;22.20;95.30;;;;;;5091069;28;20194;-73
2021/08/02 08:10:26;;;;;;;5.40;5.00;;;22.30;95.80;;;;;;5092846;28;20566;-72
2021/08/02 08:12:53;;;;;;;7.00;6.50;;;22.30;95.70;;;;;;5092248;28;20465;-73
2021/08/02 08:15:20;;;;;;;5.63;5.33;;;22.30;95.00;;;;;;5092776;28;20467;-73
2021/08/02 08:17:46;;;;;;;6.30;5.80;;;22.30;94.20;;;;;;5096137;28;20432;-73
2021/08/02 08:20:14;;;;;;;5.97;5.47;;;22.30;94.10;;;;;;5098944;28;20895;-72
2021/08/02 08:22:40;;;;;;;6.00;5.60;;;22.30;94.40;;;;;;5092194;28;20188;-83
2021/08/02 08:25:06;;;;;;;5.77;5.47;;;22.30;94.90;;;;;;5092622;28;20540;-72
2021/08/02 08:27:32;;;;;;;7.23;5.80;;;22.40;95.10;;;;;;5090977;28;20422;-72
2021/08/02 08:29:58;;;;;;;4.83;4.53;;;22.30;94.50;;;;;;5092100;28;20406;-72
2021/08/02 08:32:24;;;;;;;5.53;5.13;;;22.40;95.00;;;;;;5093174;28;20544;-73
2021/08/02 08:34:50;;;;;;;5.60;5.20;;;22.40;93.90;;;;;;5093785;28;20422;-72
2021/08/02 08:37:16;;;;;;;6.07;5.03;;;22.40;94.30;;;;;;5105896;28;20687;-72
2021/08/02 08:39:41;;;;;;;5.10;4.80;;;22.40;94.80;;;;;;5091215;28;20254;-76
2021/08/02 08:42:07;;;;;;;5.00;4.60;;;22.40;94.90;;;;;;5092597;28;20406;-71
2021/08/02 08:44:34;;;;;;;5.53;5.03;;;22.40;94.80;;;;;;5092366;28;20215;-71
2021/08/02 08:47:01;;;;;;;5.63;5.33;;;22.40;95.00;;;;;;5090755;28;20184;-74
2021/08/02 08:49:27;;;;;;;5.73;5.33;;;22.30;95.00;;;;;;5092105;28;20417;-76
2021/08/02 08:51:53;;;;;;;5.80;4.60;;;22.30;95.10;;;;;;5091500;28;20789;-72
2021/08/02 08:54:19;;;;;;;4.30;4.00;;;22.30;94.50;;;;;;5092280;28;20195;-71
2021/08/02 08:56:45;;;;;;;4.70;4.50;;;22.30;92.80;;;;;;5093466;28;20466;-71
2021/08/02 08:59:13;;;;;;;5.90;4.23;;;22.20;92.50;;;;;;5098454;28;20172;-72
2021/08/02 09:01:39;;;;;;;4.50;4.20;;;22.10;92.50;;;;;;5105125;28;20179;-72
2021/08/02 09:04:05;;;;;;;5.03;4.40;;;21.90;92.10;;;;;;5109834;28;20519;-72
2021/08/02 09:06:43;;;;;;;4.27;4.00;;;21.70;92.90;;;;;;5105407;28;20897;-71
2021/08/02 09:09:08;;;;;;;4.10;3.80;;;21.50;93.70;;;;;;5101271;28;20409;-72
2021/08/02 09:11:34;;;;;;;4.13;3.90;;;21.40;92.30;;;;;;5095769;28;20423;-71
2021/08/02 09:14:09;;;;;;;4.40;4.10;;;21.30;92.70;;;;;;5094906;28;20574;-71
2021/08/02 09:16:35;;;;;;;4.40;4.10;;;21.10;93.40;;;;;;5106659;28;20532;-71
2021/08/02 09:19:12;;;;;;;4.20;3.93;;;21.10;94.70;;;;;;5110344;28;20423;-71
2021/08/02 09:21:53;;;;;;;5.53;3.50;;;21.10;93.80;;;;;;5094963;28;20886;-71
2021/08/02 09:24:29;;;;;;;4.00;3.63;;;21.10;93.80;;;;;;5096480;28;20838;-71
2021/08/02 09:26:55;;;;;;;4.17;3.87;;;21.20;95.10;;;;;;5113724;28;20405;-71
2021/08/02 09:29:32;;;;;;;4.10;3.70;;;21.20;94.10;;;;;;5116310;28;20750;-71
2021/08/02 09:32:00;;;;;;;4.03;3.73;;;21.20;93.40;;;;;;5103561;28;20176;-71
2021/08/02 09:34:26;;;;;;;4.40;4.10;;;21.20;92.90;;;;;;5100445;28;20453;-71
2021/08/02 09:36:59;;;;;;;3.90;3.43;;;21.20;93.50;;;;;;5112266;28;20410;-71
2021/08/02 09:39:32;;;;;;;3.87;3.67;;;21.30;94.80;;;;;;5091530;28;20768;-71
2021/08/02 09:42:03;;;;;;;4.50;4.10;;;21.20;93.90;;;;;;5101459;28;20740;-71
2021/08/02 09:44:29;;;;;;;3.83;3.53;;;21.30;94.10;;;;;;5113705;28;20931;-71
2021/08/02 09:46:55;;;;;;;5.07;3.93;;;21.30;94.00;;;;;;5093993;28;20819;-71
2021/08/02 09:49:21;;;;;;;5.43;4.47;;;21.30;93.80;;;;;;5096559;28;20483;-70
2021/08/02 09:51:47;;;;;;;4.33;3.90;;;21.40;94.20;;;;;;5106586;28;20250;-71
2021/08/02 09:54:26;;;;;;;4.30;4.00;;;21.40;94.80;;;;;;5102977;28;20741;-70
2021/08/02 09:56:52;;;;;;;4.33;3.93;;;21.40;94.50;;;;;;5103721;28;20172;-70
2021/08/02 09:59:19;;;;;;;4.60;3.77;;;21.50;94.30;;;;;;5104369;28;20898;-70
2021/08/02 10:01:49;;;;;;;5.13;4.40;;;21.50;93.60;;;;;;5099822;28;20190;-71
2021/08/02 10:04:16;;;;;;;4.50;4.10;;;21.50;93.60;;;;;;5104292;28;20410;-70
2021/08/02 10:06:42;;;;;;;4.97;4.57;;;21.50;93.00;;;;;;5104320;28;20410;-71
2021/08/02 10:09:11;;;;;;;6.33;6.03;;;21.60;93.00;;;;;;5102769;28;20405;-70
2021/08/02 10:11:36;;;;;;;5.27;4.40;;;21.60;92.70;;;;;;5094359;28;20418;-70
2021/08/02 10:14:03;;;;;;;5.00;4.70;;;21.60;92.20;;;;;;5099842;28;20509;-72
2021/08/02 10:16:30;;;;;;;5.60;5.30;;;21.60;92.30;;;;;;5102444;28;20172;-72
2021/08/02 10:19:10;;;;;;;3.70;3.40;;;21.60;92.40;;;;;;5103385;28;20456;-73
2021/08/02 10:21:39;;;;;;;6.10;5.80;;;21.60;92.70;;;;;;5101523;28;20425;-73
2021/08/02 10:24:13;;;;;;;5.43;5.13;;;21.50;92.50;;;;;;5102115;28;20421;-74
2021/08/02 10:26:40;;;;;;;5.80;5.50;;;21.60;92.40;;;;;;5103518;28;20390;-72
2021/08/02 10:29:07;;;;;;;4.87;4.57;;;21.60;92.70;;;;;;5101312;28;20435;-75
2021/08/02 10:31:47;;;;;;;4.83;4.53;;;21.60;92.90;;;;;;5102178;28;20536;-75
2021/08/02 10:34:19;;;;;;;6.80;6.23;;;21.60;93.90;;;;;;5099398;28;20437;-75
2021/08/02 10:37:04;;;;;;;5.63;5.23;;;21.70;93.30;;;;;;5103581;28;20411;-72
2021/08/02 10:39:32;;;;;;;6.80;6.30;;;21.70;92.50;;;;;;5104330;28;20402;-73
2021/08/02 10:42:13;;;;;;;4.73;4.43;;;21.70;92.10;;;;;;5103863;28;20418;-74
2021/08/02 10:44:39;;;;;;;5.20;4.90;;;21.70;91.90;;;;;;5099937;28;20547;-73
2021/08/02 10:47:10;;;;;;;6.63;6.00;;;21.70;91.80;;;;;;5101284;28;20441;-73
2021/08/02 10:49:47;;;;;;;8.20;6.10;;;21.70;92.00;;;;;;5094203;28;20398;-74
2021/08/02 10:52:14;;;;;;;6.40;5.90;;;21.70;92.10;;;;;;5094419;28;20387;-72
2021/08/02 10:54:40;;;;;;;6.90;6.30;;;21.70;91.70;;;;;;5094174;28;20468;-72
2021/08/02 10:57:12;;;;;;;7.00;6.50;;;21.80;91.90;;;;;;5093681;28;20398;-73
2021/08/02 10:59:39;;;;;;;7.40;7.00;;;21.80;91.90;;;;;;5094088;28;20410;-72
2021/08/02 11:02:11;;;;;;;9.00;8.40;;;22.00;92.60;;;;;;5075628;28;20485;-72
2021/08/02 11:04:38;;;;;;;7.63;7.03;;;22.10;91.70;;;;;;5093852;28;20426;-72
2021/08/02 11:07:04;;;;;;;7.00;6.57;;;22.10;92.00;;;;;;5092872;28;20426;-72
2021/08/02 11:09:35;;;;;;;7.67;7.07;;;22.10;91.30;;;;;;5093695;28;20442;-71
2021/08/02 11:12:11;;;;;;;6.87;6.37;;;22.20;91.40;;;;;;5092965;28;20426;-72
2021/08/02 11:14:50;;;;;;;7.13;6.47;;;22.20;92.40;;;;;;5093524;28;20503;-72
2021/08/02 11:17:22;;;;;;;9.87;8.97;;;22.20;92.90;;;;;;5093018;28;20768;-72
2021/08/02 11:19:52;;;;;;;8.03;7.57;;;22.20;92.20;;;;;;5073116;28;20410;-73
2021/08/02 11:22:18;;;;;;;7.20;6.80;;;22.20;92.00;;;;;;5088548;28;20433;-73
2021/08/02 11:24:56;;;;;;;8.57;7.90;;;22.20;91.60;;;;;;5092416;28;20509;-75
2021/08/02 11:27:22;;;;;;;7.73;7.13;;;22.20;91.80;;;;;;5092838;28;20182;-73
2021/08/02 11:29:50;;;;;;;8.83;8.13;;;22.20;92.50;;;;;;5092926;28;20790;-78
2021/08/02 11:32:16;;;;;;;7.73;7.30;;;22.20;92.40;;;;;;5093036;28;20493;-69
2021/08/02 11:34:53;;;;;;;8.57;7.97;;;22.20;92.40;;;;;;5091337;28;20442;-69
2021/08/02 11:37:24;;;;;;;8.47;7.83;;;22.20;92.30;;;;;;5093025;28;20439;-69
2021/08/02 11:40:05;;;;;;;7.80;7.23;;;22.20;92.10;;;;;;5091959;28;20440;-72
2021/08/02 11:42:33;;;;;;;8.77;7.83;;;22.20;91.90;;;;;;5092781;28;20421;-74
2021/08/02 11:45:05;;;;;;;7.00;6.50;;;22.20;91.20;;;;;;5090624;28;20961;-74
2021/08/02 11:47:35;;;;;;;8.63;7.90;;;22.20;90.90;;;;;;5113747;27;20414;-72
2021/08/02 11:50:03;;;;;;;9.23;8.60;;;22.20;90.90;;;;;;5091795;28;20843;-72
2021/08/02 11:52:29;;;;;;;8.57;7.90;;;22.20;91.40;;;;;;5092550;28;20426;-72
2021/08/02 11:55:06;;;;;;;11.87;8.70;;;22.10;91.00;;;;;;5091559;28;20834;-72
2021/08/02 11:57:32;;;;;;;9.07;8.47;;;22.00;90.90;;;;;;5099167;28;20422;-73
2021/08/02 12:00:07;;;;;;;8.97;8.37;;;21.90;90.60;;;;;;5099345;28;20888;-72
2021/08/02 12:02:51;;;;;;;9.23;8.63;;;21.80;91.10;;;;;;5092585;28;20776;-72
2021/08/02 12:05:25;;;;;;;9.60;9.00;;;21.80;91.90;;;;;;5101360;28;20509;-72
2021/08/02 12:07:52;;;;;;;9.53;8.83;;;21.60;91.50;;;;;;5075886;28;20458;-78
2021/08/02 12:10:22;;;;;;;9.90;9.20;;;21.60;92.20;;;;;;5108965;28;20406;-71
2021/08/02 12:13:00;;;;;;;10.60;9.90;;;21.60;93.90;;;;;;5091530;28;20785;-75
2021/08/02 12:15:27;;;;;;;9.83;9.03;;;21.50;93.10;;;;;;5092077;28;20505;-70
2021/08/02 12:17:54;;;;;;;10.50;9.70;;;21.40;92.50;;;;;;5100020;28;20467;-71
2021/08/02 12:20:37;;;;;;;13.97;10.03;;;21.40;92.80;;;;;;5112703;28;20412;-70
2021/08/02 12:23:05;;;;;;;9.60;8.93;;;21.30;93.00;;;;;;5091719;28;20923;-70
2021/08/02 12:25:43;;;;;;;10.20;9.33;;;21.40;92.50;;;;;;5091402;28;20777;-70
2021/08/02 12:28:09;;;;;;;10.87;10.07;;;21.30;91.70;;;;;;5090215;28;20977;-71
2021/08/02 12:30:36;;;;;;;11.10;10.40;;;21.40;92.40;;;;;;5090842;28;20410;-71
2021/08/02 12:33:03;;;;;;;9.87;9.13;;;21.40;92.50;;;;;;5091160;28;20544;-71
2021/08/02 12:35:29;;;;;;;11.77;10.97;;;21.50;92.30;;;;;;5092046;28;20494;-68
2021/08/02 12:37:59;;;;;;;10.03;9.33;;;21.50;91.90;;;;;;5091304;28;20490;-71
2021/08/02 12:40:25;;;;;;;9.37;8.60;;;21.50;92.00;;;;;;5092295;28;20571;-73
2021/08/02 12:42:51;;;;;;;10.50;9.80;;;21.60;94.40;;;;;;5091125;28;20426;-79
2021/08/02 12:45:18;;;;;;;12.90;12.10;;;21.80;93.90;;;;;;5090957;28;20268;-74
2021/08/02 12:47:45;;;;;;;11.37;10.67;;;21.90;92.20;;;;;;5093460;28;20666;-74
2021/08/02 12:50:12;;;;;;;10.23;9.53;;;21.90;91.60;;;;;;5092902;28;20889;-74